Garcia Miguel — CUGT9 — position and weather

sailwx.info

Track history (hours):
 
Tides and Currents Weather Stations Pressure Air Temp Water Temp Dewpoint Dewpoint Depression Visibility Wind Speed Wind Dir Waves Ship Positions

Garcia Miguel

Last reported at 2014-Aug-09 22:27 UTC. Time now 2014-Sep-23 00:22 UTC.
Position N 38°44' W 024°01'.
Warning: this ship's position is 44 days out of date.

Length 20 m.

Type: Fishing. MMSI: 263500286.

Date/timePositionNaut miles runAvg speedWind from/ knotsBaromVisibWave heightAir tempDewpointWater temp
2014-Aug-09 22:27N 38°44' W 024°01'17 7.7
2014-Aug-09 20:17N 38°43' W 024°22'24 7.8
2014-Aug-09 17:09N 38°41' W 024°53'5 7.7
2014-Aug-09 16:33N 38°40' W 024°59'8 7.5
2014-Aug-09 15:33N 38°40' W 025°09'7 7.4
2014-Aug-09 14:33N 38°39' W 025°18'7 7.4
2014-Aug-09 13:33N 38°38' W 025°27'8 7.6
2014-Aug-09 12:33N 38°37' W 025°37'7 7.4
2014-Aug-09 11:34N 38°36' W 025°46'2 1.6
2014-Aug-09 10:33N 38°36' W 025°48'0 0.4
2014-Aug-09 09:32N 38°36' W 025°49'1 1.1
2014-Aug-09 08:29N 38°36' W 025°50'1 1.1
2014-Aug-09 07:30N 38°36' W 025°52'0 0.4
2014-Aug-09 06:33N 38°36' W 025°52'0 0.1
2014-Aug-09 05:21N 38°36' W 025°52'1 1.1
2014-Aug-09 04:28N 38°36' W 025°53'3 3.3
2014-Aug-09 03:33N 38°36' W 025°49'5 5.0
2014-Aug-09 02:33N 38°36' W 025°55'7 7.4
2014-Aug-09 01:33N 38°35' W 026°05'7 7.5
2014-Aug-09 00:33N 38°35' W 026°14'8 7.7
2014-Aug-08 23:33N 38°34' W 026°24'5 4.7
2014-Aug-08 22:33N 38°34' W 026°30'0 0.4
2014-Aug-08 21:33N 38°33' W 026°30'1 0.6
2014-Aug-08 20:33N 38°33' W 026°30'1 0.7
2014-Aug-08 19:33N 38°32' W 026°30'1 0.9
2014-Aug-08 18:33N 38°31' W 026°30'1 1.0
2014-Aug-08 17:33N 38°30' W 026°30'1 1.1
2014-Aug-08 16:33N 38°29' W 026°30'1 1.0
2014-Aug-08 15:33N 38°28' W 026°30'1 0.9
2014-Aug-08 14:33N 38°27' W 026°30'1 0.7
2014-Aug-08 13:33N 38°26' W 026°30'2 1.9
2014-Aug-08 12:33N 38°26' W 026°27'1 0.8
2014-Aug-08 11:33N 38°26' W 026°28'1 0.7
2014-Aug-08 10:33N 38°26' W 026°29'1 0.6
2014-Aug-08 09:33N 38°25' W 026°30'4 4.1
2014-Aug-08 08:34N 38°29' W 026°30'2 1.8
2014-Aug-08 07:33N 38°31' W 026°30'6 5.9
2014-Aug-08 06:33N 38°26' W 026°33'7 7.4
2014-Aug-08 05:33N 38°23' W 026°42'7 7.2
2014-Aug-08 04:33N 38°21' W 026°51'8 7.6
2014-Aug-08 03:33N 38°18' W 026°60'7 7.4
2014-Aug-08 02:33N 38°16' W 027°09'8 7.5
2014-Aug-08 01:33N 38°14' W 027°18'7 7.5
2014-Aug-08 00:33N 38°13' W 027°28'8 7.5
2014-Aug-07 23:33N 38°11' W 027°37'8 7.7
2014-Aug-07 22:33N 38°09' W 027°46'8 7.6
2014-Aug-07 21:33N 38°06' W 027°55'7 7.5
2014-Aug-07 20:33N 38°03' W 028°04'7 7.2
2014-Aug-07 19:34N 38°00' W 028°12'7 7.2
2014-Aug-07 18:33N 37°58' W 028°21'7 7.1
2014-Aug-07 17:33N 37°55' W 028°29'7 7.3
2014-Aug-07 16:34N 37°52' W 028°38'7 6.8
2014-Aug-07 15:33N 37°50' W 028°46'0 0.5
2014-Aug-07 14:34N 37°50' W 028°46'1 0.6
2014-Aug-07 13:33N 37°50' W 028°47'1 0.7
2014-Aug-07 12:33N 37°49' W 028°48'1 0.7
2014-Aug-07 11:33N 37°49' W 028°49'1 0.8
2014-Aug-07 10:33N 37°49' W 028°50'1 0.8
2014-Aug-07 09:33N 37°48' W 028°51'1 0.8
2014-Aug-07 08:33N 37°48' W 028°51'1 0.7
2014-Aug-07 07:34N 37°48' W 028°52'2 1.7
2014-Aug-07 06:33N 37°48' W 028°50'1 0.6
2014-Aug-07 05:34N 37°48' W 028°51'1 0.6
2014-Aug-07 04:33N 37°48' W 028°52'1 0.7
2014-Aug-07 03:33N 37°48' W 028°53'3 2.6
2014-Aug-07 02:33N 37°48' W 028°50'5 4.8
2014-Aug-07 01:33N 37°50' W 028°44'1 0.9
2014-Aug-07 00:33N 37°50' W 028°43'1 0.8
2014-Aug-06 23:34N 37°50' W 028°44'2 1.7
2014-Aug-06 22:34N 37°50' W 028°46'7 7.4
2014-Aug-06 21:33N 37°46' W 028°54'7 7.1
2014-Aug-06 20:33N 37°39' W 028°55'1 1.3
2014-Aug-06 19:33N 37°38' W 028°56'1 0.9
2014-Aug-06 18:34N 37°38' W 028°57'0 0.3
2014-Aug-06 17:33N 37°38' W 028°57'1 0.9
2014-Aug-06 16:33N 37°38' W 028°56'1 0.9
2014-Aug-06 15:33N 37°38' W 028°55'1 0.9
2014-Aug-06 14:33N 37°38' W 028°54'1 0.7
2014-Aug-06 13:33N 37°39' W 028°53'1 1.0
2014-Aug-06 12:33N 37°40' W 028°53'1 1.0
2014-Aug-06 11:33N 37°41' W 028°52'1 0.9
2014-Aug-06 10:33N 37°42' W 028°52'1 1.0
2014-Aug-06 09:33N 37°42' W 028°52'1 0.9
2014-Aug-06 08:33N 37°43' W 028°53'1 1.0
2014-Aug-06 07:33N 37°44' W 028°53'1 1.3
2014-Aug-06 06:33N 37°45' W 028°52'1 0.7
2014-Aug-06 05:33N 37°45' W 028°53'2 1.6
2014-Aug-06 04:33N 37°43' W 028°52'5 5.3
2014-Aug-06 03:33N 37°38' W 028°55'1 0.9
2014-Aug-06 02:33N 37°38' W 028°54'2 1.6
2014-Aug-06 01:33N 37°39' W 028°53'1 0.5
2014-Aug-06 00:33N 37°39' W 028°53'1 0.6
2014-Aug-05 23:33N 37°39' W 028°54'1 0.6
2014-Aug-05 22:33N 37°39' W 028°55'1 0.5
2014-Aug-05 21:33N 37°39' W 028°55'1 0.7
2014-Aug-05 20:33N 37°39' W 028°56'1 0.6
2014-Aug-05 19:33N 37°39' W 028°57'0 0.4
2014-Aug-05 18:33N 37°39' W 028°57'1 0.7
2014-Aug-05 17:33N 37°39' W 028°56'1 0.8
2014-Aug-05 16:33N 37°39' W 028°57'1 1.0
2014-Aug-05 15:33N 37°39' W 028°58'0 0.4
2014-Aug-05 14:33N 37°39' W 028°58'1 1.0
2014-Aug-05 13:33N 37°39' W 028°57'1 1.0
2014-Aug-05 12:33N 37°39' W 028°56'0 0.3
2014-Aug-05 11:33N 37°39' W 028°56'1 0.9
2014-Aug-05 10:33N 37°39' W 028°57'1 0.7
2014-Aug-05 09:34N 37°40' W 028°57'1 1.0
2014-Aug-05 08:33N 37°41' W 028°57'1 0.9
2014-Aug-05 07:34N 37°42' W 028°56'0 0.4
2014-Aug-05 06:33N 37°41' W 028°56'1 0.8
2014-Aug-05 05:33N 37°41' W 028°57'2 2.5
2014-Aug-05 04:33N 37°39' W 028°56'1 0.9
2014-Aug-05 03:33N 37°39' W 028°56'4 3.9
2014-Aug-05 02:33N 37°42' W 028°53'0 0.2
2014-Aug-05 01:33N 37°42' W 028°53'0 0.2
2014-Aug-05 00:33N 37°42' W 028°54'7 6.6
2014-Aug-04 23:34N 37°49' W 028°54'7 7.3
2014-Aug-04 22:34N 37°53' W 029°01'7 7.2
2014-Aug-04 21:33N 37°57' W 029°09'7 6.6
2014-Aug-04 20:33N 37°60' W 029°16'1 0.7
2014-Aug-04 19:33N 37°60' W 029°16'1 1.0
2014-Aug-04 18:33N 37°60' W 029°14'1 0.6
2014-Aug-04 17:33N 37°60' W 029°15'0 0.2
2014-Aug-04 16:33N 37°60' W 029°15'1 0.9
2014-Aug-04 15:33N 37°60' W 029°14'1 0.9
2014-Aug-04 14:33N 37°59' W 029°14'1 0.8
2014-Aug-04 13:33N 37°58' W 029°15'1 0.9
2014-Aug-04 12:33N 37°58' W 029°15'1 1.0
2014-Aug-04 11:33N 37°57' W 029°15'1 0.7
2014-Aug-04 10:33N 37°57' W 029°15'1 0.8
2014-Aug-04 09:34N 37°57' W 029°15'1 0.6
2014-Aug-04 08:33N 37°57' W 029°16'1 1.4
2014-Aug-04 07:34N 37°57' W 029°18'2 1.8
2014-Aug-04 06:33N 37°57' W 029°15'0 0.4
2014-Aug-04 05:33N 37°57' W 029°16'0 0.5
2014-Aug-04 04:33N 37°57' W 029°15'3 2.7
2014-Aug-04 03:34N 37°60' W 029°16'5 4.6
2014-Aug-04 02:33N 37°57' W 029°21'6 6.1
2014-Aug-04 01:33N 37°55' W 029°13'0 0.5
2014-Aug-04 00:33N 37°56' W 029°14'1 0.6
2014-Aug-03 23:32N 37°56' W 029°14'0 0.4
2014-Aug-03 22:31N 37°56' W 029°14'0 0.3
2014-Aug-03 21:33N 37°57' W 029°15'0 0.4
2014-Aug-03 20:33N 37°57' W 029°15'1 0.9
2014-Aug-03 19:33N 37°58' W 029°15'1 0.5
2014-Aug-03 18:33N 37°58' W 029°16'1 0.8
2014-Aug-03 17:33N 37°57' W 029°16'2 0.3
2014-Aug-03 11:34N 37°56' W 029°18'1 0.9
2014-Aug-03 10:33N 37°55' W 029°18'1 0.7
2014-Aug-03 09:33N 37°56' W 029°18'1 0.5
2014-Aug-03 08:33N 37°56' W 029°18'1 0.8
2014-Aug-03 07:33N 37°56' W 029°18'3 2.7
2014-Aug-03 06:33N 37°56' W 029°15'1 0.7
2014-Aug-03 05:33N 37°56' W 029°15'2 1.8
2014-Aug-03 04:33N 37°58' W 029°15'3 2.5
2014-Aug-03 03:33N 37°56' W 029°18'3 2.7
2014-Aug-03 02:33N 37°54' W 029°19'4 4.3
2014-Aug-03 01:33N 37°51' W 029°14'1 0.6
2014-Aug-03 00:33N 37°52' W 029°14'1 0.9
2014-Aug-02 23:33N 37°53' W 029°14'1 1.0
2014-Aug-02 22:33N 37°54' W 029°15'1 0.7
2014-Aug-02 21:33N 37°54' W 029°15'0 0.4
2014-Aug-02 20:33N 37°55' W 029°15'3 3.2
2014-Aug-02 19:34N 37°55' W 029°11'1 0.9
2014-Aug-02 18:33N 37°54' W 029°11'0 0.3
2014-Aug-02 17:33N 37°54' W 029°11'1 0.9
2014-Aug-02 16:33N 37°55' W 029°11'1 0.8
2014-Aug-02 15:34N 37°54' W 029°11'1 0.5
2014-Aug-02 14:33N 37°54' W 029°10'1 1.0
2014-Aug-02 13:33N 37°55' W 029°10'1 1.0
2014-Aug-02 12:34N 37°56' W 029°10'1 1.0
2014-Aug-02 11:34N 37°57' W 029°10'0 0.5
2014-Aug-02 10:34N 37°57' W 029°10'1 1.0
2014-Aug-02 09:33N 37°56' W 029°10'0 0.2
2014-Aug-02 08:34N 37°56' W 029°10'1 1.1
2014-Aug-02 07:33N 37°57' W 029°10'2 2.0
2014-Aug-02 06:33N 37°55' W 029°11'0 0.1
2014-Aug-02 05:33N 37°55' W 029°11'1 0.8
2014-Aug-02 04:33N 37°55' W 029°11'2 2.2
2014-Aug-02 03:33N 37°57' W 029°10'2 1.9
2014-Aug-02 02:33N 37°55' W 029°09'6 6.3
2014-Aug-02 01:33N 37°50' W 029°05'1 0.5
2014-Aug-02 00:33N 37°50' W 029°05'1 0.6
2014-Aug-01 23:33N 37°51' W 029°05'0 0.4
2014-Aug-01 22:34N 37°51' W 029°06'0 0.2
2014-Aug-01 21:33N 37°51' W 029°06'1 1.1
2014-Aug-01 20:33N 37°50' W 029°05'6 6.4
2014-Aug-01 19:33N 37°45' W 029°00'2 1.6
2014-Aug-01 18:33N 37°44' W 028°59'1 1.0
2014-Aug-01 17:34N 37°45' W 028°59'1 0.9
2014-Aug-01 16:33N 37°46' W 028°59'1 0.6
2014-Aug-01 15:33N 37°45' W 028°59'1 1.0
2014-Aug-01 14:34N 37°44' W 028°59'0 0.4
2014-Aug-01 13:33N 37°44' W 028°60'1 1.0
2014-Aug-01 12:33N 37°45' W 028°60'1 1.0
2014-Aug-01 11:33N 37°46' W 028°60'1 0.7
2014-Aug-01 10:34N 37°45' W 029°00'1 1.0
2014-Aug-01 09:33N 37°44' W 029°00'0 0.2
2014-Aug-01 08:34N 37°44' W 029°01'1 1.0
2014-Aug-01 07:33N 37°45' W 029°00'1 0.9
2014-Aug-01 06:33N 37°45' W 028°60'1 0.6
2014-Aug-01 05:33N 37°44' W 028°59'0 0.2
2014-Aug-01 04:33N 37°44' W 028°59'2 2.2
2014-Aug-01 03:33N 37°46' W 029°00'2 2.1
2014-Aug-01 02:33N 37°45' W 029°02'4 4.3
2014-Aug-01 01:33N 37°41' W 029°01'1 0.6
2014-Aug-01 00:33N 37°41' W 029°00'1 0.6
2014-Jul-31 23:33N 37°41' W 028°59'1 0.5
2014-Jul-31 22:33N 37°41' W 028°59'0 0.4
2014-Jul-31 21:33N 37°41' W 028°58'2 2.1
2014-Jul-31 20:34N 37°39' W 028°58'1 0.9
2014-Jul-31 19:33N 37°39' W 028°56'1 0.5
2014-Jul-31 18:33N 37°40' W 028°56'1 0.9
2014-Jul-31 17:34N 37°40' W 028°57'0 0.4
2014-Jul-31 16:33N 37°40' W 028°57'1 0.9
2014-Jul-31 15:33N 37°40' W 028°56'0 0.2
2014-Jul-31 14:33N 37°40' W 028°56'1 1.0
2014-Jul-31 13:33N 37°40' W 028°58'1 0.5
2014-Jul-31 12:34N 37°40' W 028°57'1 1.0
2014-Jul-31 11:33N 37°40' W 028°56'0 0.3
2014-Jul-31 10:33N 37°41' W 028°56'1 0.9
2014-Jul-31 09:33N 37°41' W 028°57'1 0.9
2014-Jul-31 08:33N 37°41' W 028°58'2 1.6
2014-Jul-31 07:34N 37°40' W 028°60'1 0.6
2014-Jul-31 06:33N 37°40' W 028°59'1 0.7
2014-Jul-31 05:33N 37°39' W 028°58'1 1.3
2014-Jul-31 04:33N 37°40' W 028°57'1 1.2
2014-Jul-31 03:33N 37°40' W 028°55'2 2.4
2014-Jul-31 02:34N 37°41' W 028°59'2 2.1
2014-Jul-31 01:33N 37°41' W 029°01'1 1.0
2014-Jul-31 00:33N 37°41' W 029°00'1 0.7
2014-Jul-30 23:33N 37°41' W 028°59'1 0.6
2014-Jul-30 22:33N 37°42' W 028°59'  
Track history (hours):
 
Tides and Currents Weather Stations Pressure Air Temp Water Temp Dewpoint Dewpoint Depression Visibility Wind Speed Wind Dir Waves Ship Positions

Garcia Miguel

Last reported at 2014-Aug-09 22:27 UTC. Time now 2014-Sep-23 00:22 UTC.
Position N 38°44' W 024°01'.
Warning: this ship's position is 44 days out of date.

Length 20 m.

Type: Fishing. MMSI: 263500286.

Date/timePositionNaut miles runAvg speedWind from/ knotsBaromVisibWave heightAir tempDewpointWater temp
2014-Aug-09 22:27N 38°44' W 024°01'17 7.7
2014-Aug-09 20:17N 38°43' W 024°22'24 7.8
2014-Aug-09 17:09N 38°41' W 024°53'5 7.7
2014-Aug-09 16:33N 38°40' W 024°59'8 7.5
2014-Aug-09 15:33N 38°40' W 025°09'7 7.4
2014-Aug-09 14:33N 38°39' W 025°18'7 7.4
2014-Aug-09 13:33N 38°38' W 025°27'8 7.6
2014-Aug-09 12:33N 38°37' W 025°37'7 7.4
2014-Aug-09 11:34N 38°36' W 025°46'2 1.6
2014-Aug-09 10:33N 38°36' W 025°48'0 0.4
2014-Aug-09 09:32N 38°36' W 025°49'1 1.1
2014-Aug-09 08:29N 38°36' W 025°50'1 1.1
2014-Aug-09 07:30N 38°36' W 025°52'0 0.4
2014-Aug-09 06:33N 38°36' W 025°52'0 0.1
2014-Aug-09 05:21N 38°36' W 025°52'1 1.1
2014-Aug-09 04:28N 38°36' W 025°53'3 3.3
2014-Aug-09 03:33N 38°36' W 025°49'5 5.0
2014-Aug-09 02:33N 38°36' W 025°55'7 7.4
2014-Aug-09 01:33N 38°35' W 026°05'7 7.5
2014-Aug-09 00:33N 38°35' W 026°14'8 7.7
2014-Aug-08 23:33N 38°34' W 026°24'5 4.7
2014-Aug-08 22:33N 38°34' W 026°30'0 0.4
2014-Aug-08 21:33N 38°33' W 026°30'1 0.6
2014-Aug-08 20:33N 38°33' W 026°30'1 0.7
2014-Aug-08 19:33N 38°32' W 026°30'1 0.9
2014-Aug-08 18:33N 38°31' W 026°30'1 1.0
2014-Aug-08 17:33N 38°30' W 026°30'1 1.1
2014-Aug-08 16:33N 38°29' W 026°30'1 1.0
2014-Aug-08 15:33N 38°28' W 026°30'1 0.9
2014-Aug-08 14:33N 38°27' W 026°30'1 0.7
2014-Aug-08 13:33N 38°26' W 026°30'2 1.9
2014-Aug-08 12:33N 38°26' W 026°27'1 0.8
2014-Aug-08 11:33N 38°26' W 026°28'1 0.7
2014-Aug-08 10:33N 38°26' W 026°29'1 0.6
2014-Aug-08 09:33N 38°25' W 026°30'4 4.1
2014-Aug-08 08:34N 38°29' W 026°30'2 1.8
2014-Aug-08 07:33N 38°31' W 026°30'6 5.9
2014-Aug-08 06:33N 38°26' W 026°33'7 7.4
2014-Aug-08 05:33N 38°23' W 026°42'7 7.2
2014-Aug-08 04:33N 38°21' W 026°51'8 7.6
2014-Aug-08 03:33N 38°18' W 026°60'7 7.4
2014-Aug-08 02:33N 38°16' W 027°09'8 7.5
2014-Aug-08 01:33N 38°14' W 027°18'7 7.5
2014-Aug-08 00:33N 38°13' W 027°28'8 7.5
2014-Aug-07 23:33N 38°11' W 027°37'8 7.7
2014-Aug-07 22:33N 38°09' W 027°46'8 7.6
2014-Aug-07 21:33N 38°06' W 027°55'7 7.5
2014-Aug-07 20:33N 38°03' W 028°04'7 7.2
2014-Aug-07 19:34N 38°00' W 028°12'7 7.2
2014-Aug-07 18:33N 37°58' W 028°21'7 7.1
2014-Aug-07 17:33N 37°55' W 028°29'7 7.3
2014-Aug-07 16:34N 37°52' W 028°38'7 6.8
2014-Aug-07 15:33N 37°50' W 028°46'0 0.5
2014-Aug-07 14:34N 37°50' W 028°46'1 0.6
2014-Aug-07 13:33N 37°50' W 028°47'1 0.7
2014-Aug-07 12:33N 37°49' W 028°48'1 0.7
2014-Aug-07 11:33N 37°49' W 028°49'1 0.8
2014-Aug-07 10:33N 37°49' W 028°50'1 0.8
2014-Aug-07 09:33N 37°48' W 028°51'1 0.8
2014-Aug-07 08:33N 37°48' W 028°51'1 0.7
2014-Aug-07 07:34N 37°48' W 028°52'2 1.7
2014-Aug-07 06:33N 37°48' W 028°50'1 0.6
2014-Aug-07 05:34N 37°48' W 028°51'1 0.6
2014-Aug-07 04:33N 37°48' W 028°52'1 0.7
2014-Aug-07 03:33N 37°48' W 028°53'3 2.6
2014-Aug-07 02:33N 37°48' W 028°50'5 4.8
2014-Aug-07 01:33N 37°50' W 028°44'1 0.9
2014-Aug-07 00:33N 37°50' W 028°43'1 0.8
2014-Aug-06 23:34N 37°50' W 028°44'2 1.7
2014-Aug-06 22:34N 37°50' W 028°46'7 7.4
2014-Aug-06 21:33N 37°46' W 028°54'7 7.1
2014-Aug-06 20:33N 37°39' W 028°55'1 1.3
2014-Aug-06 19:33N 37°38' W 028°56'1 0.9
2014-Aug-06 18:34N 37°38' W 028°57'0 0.3
2014-Aug-06 17:33N 37°38' W 028°57'1 0.9
2014-Aug-06 16:33N 37°38' W 028°56'1 0.9
2014-Aug-06 15:33N 37°38' W 028°55'1 0.9
2014-Aug-06 14:33N 37°38' W 028°54'1 0.7
2014-Aug-06 13:33N 37°39' W 028°53'1 1.0
2014-Aug-06 12:33N 37°40' W 028°53'1 1.0
2014-Aug-06 11:33N 37°41' W 028°52'1 0.9
2014-Aug-06 10:33N 37°42' W 028°52'1 1.0
2014-Aug-06 09:33N 37°42' W 028°52'1 0.9
2014-Aug-06 08:33N 37°43' W 028°53'1 1.0
2014-Aug-06 07:33N 37°44' W 028°53'1 1.3
2014-Aug-06 06:33N 37°45' W 028°52'1 0.7
2014-Aug-06 05:33N 37°45' W 028°53'2 1.6
2014-Aug-06 04:33N 37°43' W 028°52'5 5.3
2014-Aug-06 03:33N 37°38' W 028°55'1 0.9
2014-Aug-06 02:33N 37°38' W 028°54'2 1.6
2014-Aug-06 01:33N 37°39' W 028°53'1 0.5
2014-Aug-06 00:33N 37°39' W 028°53'1 0.6
2014-Aug-05 23:33N 37°39' W 028°54'1 0.6
2014-Aug-05 22:33N 37°39' W 028°55'1 0.5
2014-Aug-05 21:33N 37°39' W 028°55'1 0.7
2014-Aug-05 20:33N 37°39' W 028°56'1 0.6
2014-Aug-05 19:33N 37°39' W 028°57'0 0.4
2014-Aug-05 18:33N 37°39' W 028°57'1 0.7
2014-Aug-05 17:33N 37°39' W 028°56'1 0.8
2014-Aug-05 16:33N 37°39' W 028°57'1 1.0
2014-Aug-05 15:33N 37°39' W 028°58'0 0.4
2014-Aug-05 14:33N 37°39' W 028°58'1 1.0
2014-Aug-05 13:33N 37°39' W 028°57'1 1.0
2014-Aug-05 12:33N 37°39' W 028°56'0 0.3
2014-Aug-05 11:33N 37°39' W 028°56'1 0.9
2014-Aug-05 10:33N 37°39' W 028°57'1 0.7
2014-Aug-05 09:34N 37°40' W 028°57'1 1.0
2014-Aug-05 08:33N 37°41' W 028°57'1 0.9
2014-Aug-05 07:34N 37°42' W 028°56'0 0.4
2014-Aug-05 06:33N 37°41' W 028°56'1 0.8
2014-Aug-05 05:33N 37°41' W 028°57'2 2.5
2014-Aug-05 04:33N 37°39' W 028°56'1 0.9
2014-Aug-05 03:33N 37°39' W 028°56'4 3.9
2014-Aug-05 02:33N 37°42' W 028°53'0 0.2
2014-Aug-05 01:33N 37°42' W 028°53'0 0.2
2014-Aug-05 00:33N 37°42' W 028°54'7 6.6
2014-Aug-04 23:34N 37°49' W 028°54'7 7.3
2014-Aug-04 22:34N 37°53' W 029°01'7 7.2
2014-Aug-04 21:33N 37°57' W 029°09'7 6.6
2014-Aug-04 20:33N 37°60' W 029°16'1 0.7
2014-Aug-04 19:33N 37°60' W 029°16'1 1.0
2014-Aug-04 18:33N 37°60' W 029°14'1 0.6
2014-Aug-04 17:33N 37°60' W 029°15'0 0.2
2014-Aug-04 16:33N 37°60' W 029°15'1 0.9
2014-Aug-04 15:33N 37°60' W 029°14'1 0.9
2014-Aug-04 14:33N 37°59' W 029°14'1 0.8
2014-Aug-04 13:33N 37°58' W 029°15'1 0.9
2014-Aug-04 12:33N 37°58' W 029°15'1 1.0
2014-Aug-04 11:33N 37°57' W 029°15'1 0.7
2014-Aug-04 10:33N 37°57' W 029°15'1 0.8
2014-Aug-04 09:34N 37°57' W 029°15'1 0.6
2014-Aug-04 08:33N 37°57' W 029°16'1 1.4
2014-Aug-04 07:34N 37°57' W 029°18'2 1.8
2014-Aug-04 06:33N 37°57' W 029°15'0 0.4
2014-Aug-04 05:33N 37°57' W 029°16'0 0.5
2014-Aug-04 04:33N 37°57' W 029°15'3 2.7
2014-Aug-04 03:34N 37°60' W 029°16'5 4.6
2014-Aug-04 02:33N 37°57' W 029°21'6 6.1
2014-Aug-04 01:33N 37°55' W 029°13'0 0.5
2014-Aug-04 00:33N 37°56' W 029°14'1 0.6
2014-Aug-03 23:32N 37°56' W 029°14'0 0.4
2014-Aug-03 22:31N 37°56' W 029°14'0 0.3
2014-Aug-03 21:33N 37°57' W 029°15'0 0.4
2014-Aug-03 20:33N 37°57' W 029°15'1 0.9
2014-Aug-03 19:33N 37°58' W 029°15'1 0.5
2014-Aug-03 18:33N 37°58' W 029°16'1 0.8
2014-Aug-03 17:33N 37°57' W 029°16'2 0.3
2014-Aug-03 11:34N 37°56' W 029°18'1 0.9
2014-Aug-03 10:33N 37°55' W 029°18'1 0.7
2014-Aug-03 09:33N 37°56' W 029°18'1 0.5
2014-Aug-03 08:33N 37°56' W 029°18'1 0.8
2014-Aug-03 07:33N 37°56' W 029°18'3 2.7
2014-Aug-03 06:33N 37°56' W 029°15'1 0.7
2014-Aug-03 05:33N 37°56' W 029°15'2 1.8
2014-Aug-03 04:33N 37°58' W 029°15'3 2.5
2014-Aug-03 03:33N 37°56' W 029°18'3 2.7
2014-Aug-03 02:33N 37°54' W 029°19'4 4.3
2014-Aug-03 01:33N 37°51' W 029°14'1 0.6
2014-Aug-03 00:33N 37°52' W 029°14'1 0.9
2014-Aug-02 23:33N 37°53' W 029°14'1 1.0
2014-Aug-02 22:33N 37°54' W 029°15'1 0.7
2014-Aug-02 21:33N 37°54' W 029°15'0 0.4
2014-Aug-02 20:33N 37°55' W 029°15'3 3.2
2014-Aug-02 19:34N 37°55' W 029°11'1 0.9
2014-Aug-02 18:33N 37°54' W 029°11'0 0.3
2014-Aug-02 17:33N 37°54' W 029°11'1 0.9
2014-Aug-02 16:33N 37°55' W 029°11'1 0.8
2014-Aug-02 15:34N 37°54' W 029°11'1 0.5
2014-Aug-02 14:33N 37°54' W 029°10'1 1.0
2014-Aug-02 13:33N 37°55' W 029°10'1 1.0
2014-Aug-02 12:34N 37°56' W 029°10'1 1.0
2014-Aug-02 11:34N 37°57' W 029°10'0 0.5
2014-Aug-02 10:34N 37°57' W 029°10'1 1.0
2014-Aug-02 09:33N 37°56' W 029°10'0 0.2
2014-Aug-02 08:34N 37°56' W 029°10'1 1.1
2014-Aug-02 07:33N 37°57' W 029°10'2 2.0
2014-Aug-02 06:33N 37°55' W 029°11'0 0.1
2014-Aug-02 05:33N 37°55' W 029°11'1 0.8
2014-Aug-02 04:33N 37°55' W 029°11'2 2.2
2014-Aug-02 03:33N 37°57' W 029°10'2 1.9
2014-Aug-02 02:33N 37°55' W 029°09'6 6.3
2014-Aug-02 01:33N 37°50' W 029°05'1 0.5
2014-Aug-02 00:33N 37°50' W 029°05'1 0.6
2014-Aug-01 23:33N 37°51' W 029°05'0 0.4
2014-Aug-01 22:34N 37°51' W 029°06'0 0.2
2014-Aug-01 21:33N 37°51' W 029°06'1 1.1
2014-Aug-01 20:33N 37°50' W 029°05'6 6.4
2014-Aug-01 19:33N 37°45' W 029°00'2 1.6
2014-Aug-01 18:33N 37°44' W 028°59'1 1.0
2014-Aug-01 17:34N 37°45' W 028°59'1 0.9
2014-Aug-01 16:33N 37°46' W 028°59'1 0.6
2014-Aug-01 15:33N 37°45' W 028°59'1 1.0
2014-Aug-01 14:34N 37°44' W 028°59'0 0.4
2014-Aug-01 13:33N 37°44' W 028°60'1 1.0
2014-Aug-01 12:33N 37°45' W 028°60'1 1.0
2014-Aug-01 11:33N 37°46' W 028°60'1 0.7
2014-Aug-01 10:34N 37°45' W 029°00'1 1.0
2014-Aug-01 09:33N 37°44' W 029°00'0 0.2
2014-Aug-01 08:34N 37°44' W 029°01'1 1.0
2014-Aug-01 07:33N 37°45' W 029°00'1 0.9
2014-Aug-01 06:33N 37°45' W 028°60'1 0.6
2014-Aug-01 05:33N 37°44' W 028°59'0 0.2
2014-Aug-01 04:33N 37°44' W 028°59'2 2.2
2014-Aug-01 03:33N 37°46' W 029°00'2 2.1
2014-Aug-01 02:33N 37°45' W 029°02'4 4.3
2014-Aug-01 01:33N 37°41' W 029°01'1 0.6
2014-Aug-01 00:33N 37°41' W 029°00'1 0.6
2014-Jul-31 23:33N 37°41' W 028°59'1 0.5
2014-Jul-31 22:33N 37°41' W 028°59'0 0.4
2014-Jul-31 21:33N 37°41' W 028°58'2 2.1
2014-Jul-31 20:34N 37°39' W 028°58'1 0.9
2014-Jul-31 19:33N 37°39' W 028°56'1 0.5
2014-Jul-31 18:33N 37°40' W 028°56'1 0.9
2014-Jul-31 17:34N 37°40' W 028°57'0 0.4
2014-Jul-31 16:33N 37°40' W 028°57'1 0.9
2014-Jul-31 15:33N 37°40' W 028°56'0 0.2
2014-Jul-31 14:33N 37°40' W 028°56'1 1.0
2014-Jul-31 13:33N 37°40' W 028°58'1 0.5
2014-Jul-31 12:34N 37°40' W 028°57'1 1.0
2014-Jul-31 11:33N 37°40' W 028°56'0 0.3
2014-Jul-31 10:33N 37°41' W 028°56'1 0.9
2014-Jul-31 09:33N 37°41' W 028°57'1 0.9
2014-Jul-31 08:33N 37°41' W 028°58'2 1.6
2014-Jul-31 07:34N 37°40' W 028°60'1 0.6
2014-Jul-31 06:33N 37°40' W 028°59'1 0.7
2014-Jul-31 05:33N 37°39' W 028°58'1 1.3
2014-Jul-31 04:33N 37°40' W 028°57'1 1.2
2014-Jul-31 03:33N 37°40' W 028°55'2 2.4
2014-Jul-31 02:34N 37°41' W 028°59'2 2.1
2014-Jul-31 01:33N 37°41' W 029°01'1 1.0
2014-Jul-31 00:33N 37°41' W 029°00'1 0.7
2014-Jul-30 23:33N 37°41' W 028°59'1 0.6
2014-Jul-30 22:33N 37°42' W 028°59'  

Dump ship's entire track history